Portada
METAR-TAF:

METAR-TAF

Aeroports :

Aeroport Internacional de Maputo

Maputo, Moçambic

latitud: 25-55S, longitud: 032-34E, altitud: 39 m

Observació

L'informe es va fer fa 49 minuts, a les 11:00 UTC
Vent 9 kt del Est/Sud-Est
Temperatura 31°C
Humitat 43%
Pressió 1012 hPa
Visibilitat 10 km o més
Escasses núvols a una alçada de 2000 ft

METAR: FQMA 191100Z 12009KT 9999 FEW020 31/17 Q1012 NOSIG

Hora: 13:49 (11:49 UTC)

Pronòstic

L'informe es va fer fa 1 hora i 49 minuts, a les 10:00 UTC
Pronòstic vàlid del 19 a les 12 UTC al 20 a les 18 UTC
Vent 12 kt del Est
Visibilitat 10 km o més
Escasses núvols a una alçada de 2000 ft
Evolucionant progressivament
l' 19 a les 20 UTC al 19 a les 22 UTC
Vent 8 kt del Sud/Sud-Oest
Evolucionant progressivament
l' 20 a les 12 UTC al 20 a les 14 UTC
Vent 12 kt del Sud-Est

TAF: FQMA 191000Z 1912/2018 10012KT 9999 FEW020 TX31/1913Z TN22/2004Z BECMG 1920/1922 20008KT BECMG 2012/2014 14012KT

Observacions i pronòstics meteorològics de més de 4000 aeroports (METAR i TAF).

Les estacions disponibles són els punts grocs i vermells al mapa.

Posi el ratolí al punt desitjat per veure el nom de l'estació.

Feu clic per veure les observacions i els pronòstics meteorològics.

Per canviar el mapa: feu clic els botons verds amb una creu de color negre per apropar; al botó verd amb un guió per allunyar la imatge; o en les fletxes verdes per a mapes adjacents.


METAR-TAF: